RJSN

Niigata Airport

Niigata, Japan
TAF RJSN 201706Z 2018/2200 30026G36KT 8000 -SHSN FEW010 BKN020 TEMPO 2018/2103 4000 -SHSN BECMG 2109/2112 33012KT TEMPO 2112/2118 2000 SHSNRA BR FEW005 BKN008 TEMPO 2118/2121 4000 -SHSN FEW005 BKN008
Issued Valid From Valid To
Jan-20 @ 17:06 UTC
(5 hours ago)
Jan-20 @ 18:00 UTC
(4 hours ago)
Jan-22 @ 00:00 UTC
(-1 days ago)
Jan-20 @ 18:00 to Jan-21 @ 09:00
TAF RJSN 201706Z 2018/2200 30026G36KT 8000 -SHSN FEW010 BKN020
Wind Visibility Clouds Conditions
300° at 26 knots
 Gusting to 36 knots
7,998 meters
  • Few at 1,000' AGL
  • Broken at 2,000' AGL
  • Light Snow
Temporary Jan-20 @ 18:00 to Jan-21 @ 03:00
TEMPO 2018/2103 4000 -SHSN
Visibility Conditions
4,007 meters
  • Light Snow
Becoming Jan-21 @ 09:00 to Jan-22 @ 00:00
BECMG 2109/2112 33012KT
Wind Visibility Clouds Conditions
330° at 12 knots 7,998 meters
  • Few at 1,000' AGL
  • Broken at 2,000' AGL
  • Light Snow
Temporary Jan-21 @ 12:00 to Jan-21 @ 18:00
TEMPO 2112/2118 2000 SHSNRA BR FEW005 BKN008
Visibility Clouds Conditions
1,996 meters
  • Few at 500' AGL
  • Broken at 800' AGL
  • Snow
  • Rain
  • Mist
Temporary Jan-21 @ 18:00 to Jan-21 @ 21:00
TEMPO 2118/2121 4000 -SHSN FEW005 BKN008
Visibility Clouds Conditions
4,007 meters
  • Few at 500' AGL
  • Broken at 800' AGL
  • Light Snow
TAF RJSN 201706Z 2018/2200 30026G36KT 8000 -SHSN FEW010 BKN020 TEMPO 2018/2103 4000 -SHSN BECMG 2109/2112 33012KT TEMPO 2112/2118 2000 SHSNRA BR FEW005 BKN008 TEMPO 2118/2121 4000 -SHSN FEW005 BKN008
Issued Jan-20 @ 17:06 UTC
(5 hours ago)
Valid From Jan-20 @ 18:00 UTC
(4 hours ago)
Valid To Jan-22 @ 00:00 UTC
(-1 days ago)
Jan-20 @ 18:00 - Jan-21 @ 09:00
Wind Visibility
300° at 26 knots
 Gusting to 36 knots
7,998 meters
Clouds
  • Few at 1,000' AGL
  • Broken at 2,000' AGL
Conditions
  • Light Snow
Temporary Jan-20 @ 18:00 - Jan-21 @ 03:00
Conditions
  • Light Snow
Becoming Jan-21 @ 09:00 - Jan-22 @ 00:00
Wind Visibility
330° at 12 knots 7,998 meters
Clouds
  • Few at 1,000' AGL
  • Broken at 2,000' AGL
Conditions
  • Light Snow
Temporary Jan-21 @ 12:00 - Jan-21 @ 18:00
Clouds
  • Few at 500' AGL
  • Broken at 800' AGL
Conditions
  • Snow
  • Rain
  • Mist
Temporary Jan-21 @ 18:00 - Jan-21 @ 21:00
Clouds
  • Few at 500' AGL
  • Broken at 800' AGL
Conditions
  • Light Snow